Time;durP1;ratioP1;P1;durP2;ratioP2;P2;SDS_P1;SDS_P2;PMS_P1;PMS_P2;Temp;Humidity;BMP_temperature;BMP_pressure;BME280_temperature;BME280_humidity;BME280_pressure;Samples;Min_cycle;Max_cycle;Signal;HPM_P1;HPM_P2
2021/07/26 00:01:02;;;;;;;16.95;12.40;;;;;;;22.14;59.16;99833.94;1738853;82;21013;-40
2021/07/26 00:03:29;;;;;;;14.50;12.90;;;;;;;22.14;58.67;99832.56;1738712;82;21103;-40
2021/07/26 00:05:58;;;;;;;19.55;13.05;;;;;;;22.17;58.11;99834.48;1738826;82;20978;-40
2021/07/26 00:08:26;;;;;;;;;;;;;;;22.19;58.23;99840.34;1741431;82;20978;-40
2021/07/26 00:11:08;;;;;;;15.65;12.35;;;;;;;22.20;58.40;99835.78;1738724;82;20432;-40
2021/07/26 00:13:37;;;;;;;17.35;13.08;;;;;;;22.13;59.68;99832.38;1738832;82;21778;-40
2021/07/26 00:16:07;;;;;;;15.98;13.00;;;;;;;22.15;60.14;99832.74;1738955;82;20891;-40
2021/07/26 00:18:33;;;;;;;16.37;12.58;;;;;;;22.16;60.15;99838.45;1738571;82;20922;-40
2021/07/26 00:21:01;;;;;;;18.45;12.45;;;;;;;22.13;59.95;99833.76;1738831;82;21615;-40
2021/07/26 00:23:28;;;;;;;15.48;13.03;;;;;;;22.13;59.80;99833.76;1738777;82;21061;-39
2021/07/26 00:25:55;;;;;;;15.88;12.37;;;;;;;22.13;59.54;99833.76;1738700;82;21077;-40
2021/07/26 00:28:23;;;;;;;16.50;12.37;;;;;;;22.10;59.68;99829.28;1738825;82;21927;-40
2021/07/26 00:30:50;;;;;;;16.62;12.82;;;;;;;22.11;59.06;99834.20;1734313;81;21578;-40
2021/07/26 00:36:34;;;;;;;18.98;12.82;;;;;;;22.12;59.07;99837.75;1718015;82;21087;-40
2021/07/26 00:39:04;;;;;;;15.30;12.60;;;;;;;22.07;59.26;99834.25;1725900;82;21096;-40
2021/07/26 00:41:32;;;;;;;15.00;12.10;;;;;;;22.07;59.25;99835.64;1727059;83;21205;-40
2021/07/26 00:43:59;;;;;;;14.30;11.88;;;;;;;22.06;59.21;99829.96;1726740;82;21076;-40
2021/07/26 00:46:25;;;;;;;17.40;11.63;;;;;;;22.06;59.16;99832.72;1726789;83;21546;-40
2021/07/26 00:48:52;;;;;;;16.62;11.90;;;;;;;22.09;59.26;99830.48;1726626;83;21009;-40
2021/07/26 00:51:20;;;;;;;14.40;11.57;;;;;;;22.09;59.06;99829.09;1726716;82;21028;-40
2021/07/26 00:53:47;;;;;;;16.17;12.43;;;;;;;22.10;58.65;99822.38;1708247;83;21135;-40
2021/07/26 00:56:14;;;;;;;14.43;11.95;;;;;;;22.12;58.53;99822.56;1726845;83;21041;-40
2021/07/26 00:58:41;;;;;;;16.05;11.48;;;;;;;22.14;58.10;99823.67;1703805;83;21102;-40
2021/07/26 01:01:09;;;;;;;14.73;11.38;;;;;;;22.15;57.84;99815.57;1722283;83;20981;-40
2021/07/26 01:03:36;;;;;;;12.93;11.50;;;;;;;22.14;57.55;99815.39;1721905;83;21506;-40
2021/07/26 01:06:03;;;;;;;13.65;11.28;;;;;;;22.12;57.30;99805.98;1721744;83;21799;-40
2021/07/26 01:08:30;;;;;;;13.85;11.50;;;;;;;22.09;57.17;99804.25;1721733;83;21534;-40
2021/07/26 01:10:57;;;;;;;13.03;11.63;;;;;;;22.08;57.18;99804.06;1738198;82;21059;-40
2021/07/26 01:13:26;;;;;;;13.98;10.98;;;;;;;22.06;57.18;99807.88;1751293;82;21060;-40
2021/07/26 01:15:52;;;;;;;14.47;11.53;;;;;;;22.03;57.22;99810.68;1751555;82;21559;-40
2021/07/26 01:18:30;;;;;;;15.00;11.88;;;;;;;22.00;57.27;99799.91;1751299;82;21800;-40
2021/07/26 01:21:03;;;;;;;17.00;11.70;;;;;;;21.95;57.25;99803.16;1751361;82;21583;-40
2021/07/26 01:23:34;;;;;;;15.20;11.95;;;;;;;21.90;57.45;99802.24;1751322;82;20986;-40
2021/07/26 01:26:03;;;;;;;17.05;12.15;;;;;;;21.88;57.71;99803.26;1751246;81;21570;-40
2021/07/26 01:28:33;;;;;;;16.93;11.95;;;;;;;21.86;58.04;99800.16;1751316;82;21022;-40
2021/07/26 01:30:59;;;;;;;;;;;;;;;21.83;58.54;99801.02;1754085;82;21116;-40
2021/07/26 01:33:26;;;;;;;13.90;12.00;;;;;;;21.82;58.72;99803.59;1751193;82;20170;-40
2021/07/26 01:35:53;;;;;;;16.37;12.00;;;;;;;21.70;58.78;99802.84;1751278;82;20969;-40
2021/07/26 01:38:20;;;;;;;14.05;11.88;;;;;;;21.71;58.59;99801.64;1745103;82;21029;-40
2021/07/26 01:40:50;;;;;;;15.95;12.85;;;;;;;21.72;58.43;99801.05;1751211;82;21002;-40
2021/07/26 01:43:18;;;;;;;17.30;12.60;;;;;;;21.73;58.30;99803.98;1751311;82;21211;-40
2021/07/26 01:45:50;;;;;;;16.50;12.80;;;;;;;21.70;58.25;99798.70;1745454;82;20973;-40
2021/07/26 01:48:24;;;;;;;20.08;12.13;;;;;;;21.67;58.28;99800.34;1749855;81;21021;-40
2021/07/26 01:50:53;;;;;;;14.18;11.83;;;;;;;21.66;58.22;99803.51;1751092;82;21038;-40
2021/07/26 01:53:20;;;;;;;20.13;12.10;;;;;;;21.63;58.30;99806.53;1751550;82;21013;-40
2021/07/26 01:55:47;;;;;;;15.45;12.40;;;;;;;21.61;58.38;99809.52;1751136;82;21894;-40
2021/07/26 01:58:13;;;;;;;14.28;12.35;;;;;;;21.58;58.49;99804.86;1754202;81;21519;-40
2021/07/26 02:00:40;;;;;;;14.90;12.13;;;;;;;21.57;58.62;99803.30;1756772;81;21547;-40
2021/07/26 02:03:07;;;;;;;16.15;13.15;;;;;;;21.55;58.80;99796.03;1756598;81;21562;-40
2021/07/26 02:05:33;;;;;;;15.58;12.35;;;;;;;21.56;58.90;99803.11;1759444;81;21399;-40
2021/07/26 02:08:00;;;;;;;16.52;13.60;;;;;;;21.59;58.85;99802.28;1772231;81;21130;-40
2021/07/26 02:10:26;;;;;;;18.25;13.30;;;;;;;21.61;58.81;99806.16;1772451;81;20930;-40
2021/07/26 02:12:53;;;;;;;15.72;13.10;;;;;;;21.64;58.91;99801.77;1772180;81;20949;-40
2021/07/26 02:15:20;;;;;;;17.32;12.40;;;;;;;21.66;58.86;99804.30;1772764;81;21001;-40
2021/07/26 02:17:46;;;;;;;15.32;13.28;;;;;;;21.67;58.85;99807.23;1772164;81;21014;-40
2021/07/26 02:20:14;;;;;;;14.58;12.68;;;;;;;21.69;58.84;99809.55;1772302;81;21120;-40
2021/07/26 02:22:40;;;;;;;15.28;13.25;;;;;;;21.69;58.85;99809.55;1772201;81;21022;-40
2021/07/26 02:25:11;;;;;;;16.27;12.35;;;;;;;21.68;58.85;99809.39;1772110;81;21558;-40
2021/07/26 02:27:37;;;;;;;19.10;13.22;;;;;;;21.68;58.81;99808.02;1772244;81;20953;-40
2021/07/26 02:30:05;;;;;;;18.12;12.50;;;;;;;21.66;59.11;99806.27;1770225;81;21009;-40
2021/07/26 02:32:32;;;;;;;18.00;13.53;;;;;;;21.66;59.49;99813.95;1726321;83;21122;-40
2021/07/26 02:34:58;;;;;;;16.60;12.73;;;;;;;21.67;59.68;99809.22;1726400;82;21554;-40
2021/07/26 02:37:25;;;;;;;15.13;12.53;;;;;;;21.68;59.72;99808.80;1726525;83;21558;-40
2021/07/26 02:39:52;;;;;;;15.43;12.43;;;;;;;21.73;59.80;99812.27;1726452;83;21073;-39
2021/07/26 02:42:18;;;;;;;15.95;12.90;;;;;;;21.76;59.60;99816.33;1726564;82;21072;-39
2021/07/26 02:44:45;;;;;;;15.00;12.60;;;;;;;21.79;59.51;99826.51;1726528;83;21137;-40
2021/07/26 02:47:12;;;;;;;18.00;12.70;;;;;;;21.80;59.50;99823.94;1726557;82;21036;-40
2021/07/26 02:49:39;;;;;;;18.98;13.22;;;;;;;21.83;59.45;99818.96;1726628;83;21064;-40
2021/07/26 02:52:06;;;;;;;19.82;12.90;;;;;;;21.85;59.45;99822.06;1726427;82;21006;-40
2021/07/26 02:54:33;;;;;;;25.65;14.58;;;;;;;21.89;59.23;99827.50;1726766;83;21495;-40
2021/07/26 02:56:59;;;;;;;21.95;14.20;;;;;;;21.89;59.15;99820.00;1726374;83;21785;-40
2021/07/26 02:59:26;;;;;;;26.35;14.30;;;;;;;21.90;59.20;99820.19;1726467;83;21618;-40
2021/07/26 03:01:52;;;;;;;18.95;12.68;;;;;;;21.90;59.78;99823.55;1726464;83;20961;-40
2021/07/26 03:04:19;;;;;;;17.12;13.38;;;;;;;21.89;59.88;99826.91;1726502;83;21625;-40
2021/07/26 03:06:46;;;;;;;21.87;13.40;;;;;;;21.89;59.91;99826.91;1726577;82;20996;-40
2021/07/26 03:09:13;;;;;;;16.52;12.28;;;;;;;21.90;60.20;99827.09;1726565;82;21942;-40
2021/07/26 03:11:39;;;;;;;14.75;12.05;;;;;;;21.42;59.88;99749.58;1726364;83;20955;-40
2021/07/26 03:14:06;;;;;;;12.88;11.53;;;;;;;21.97;59.14;99828.38;1726658;83;21001;-40
2021/07/26 03:16:33;;;;;;;14.60;11.25;;;;;;;22.02;58.81;99825.12;1726351;83;21044;-40
2021/07/26 03:19:00;;;;;;;15.85;12.65;;;;;;;22.06;58.41;99824.44;1726341;83;21044;-40
2021/07/26 03:21:26;;;;;;;14.10;11.40;;;;;;;22.11;58.19;99825.92;1726468;83;21114;-40
2021/07/26 03:23:53;;;;;;;15.85;12.30;;;;;;;22.15;58.09;99826.62;1726463;82;21008;-40
2021/07/26 03:26:20;;;;;;;16.02;12.25;;;;;;;22.18;57.85;99829.90;1726443;83;21032;-40
2021/07/26 03:28:46;;;;;;;14.70;11.60;;;;;;;22.20;57.67;99833.02;1726728;83;21029;-40
2021/07/26 03:31:13;;;;;;;15.10;11.97;;;;;;;22.22;57.70;99829.22;1726371;81;21692;-40
2021/07/26 03:33:40;;;;;;;15.05;12.28;;;;;;;22.25;57.78;99830.36;1726439;82;21877;-40
2021/07/26 03:36:07;;;;;;;17.42;12.30;;;;;;;22.26;58.01;99834.69;1726432;82;21052;-40
2021/07/26 03:38:33;;;;;;;16.45;12.05;;;;;;;22.28;57.95;99834.42;1726377;83;21048;-40
2021/07/26 03:41:00;;;;;;;13.70;11.60;;;;;;;22.30;58.11;99836.17;1726634;83;21048;-40
2021/07/26 03:43:27;;;;;;;16.32;11.50;;;;;;;22.32;58.14;99837.10;1726943;82;21012;-40
2021/07/26 03:45:54;;;;;;;15.18;11.93;;;;;;;22.33;57.86;99839.45;1726487;82;21190;-40
2021/07/26 03:48:21;;;;;;;16.67;11.57;;;;;;;22.34;58.10;99839.63;1720504;82;21730;-40
2021/07/26 03:50:47;;;;;;;36.13;14.68;;;;;;;22.35;58.45;99837.65;1726327;83;20980;-40
2021/07/26 03:53:17;;;;;;;26.35;13.65;;;;;;;22.35;59.20;99837.05;1726436;83;21041;-40
2021/07/26 03:55:44;;;;;;;18.15;11.85;;;;;;;22.40;59.43;99837.14;1726411;82;21080;-40
2021/07/26 03:58:11;;;;;;;14.55;10.75;;;;;;;22.48;58.74;99842.08;1716612;82;21134;-40
2021/07/26 04:00:38;;;;;;;13.78;10.93;;;;;;;22.53;58.44;99847.70;1713490;83;21017;-40
2021/07/26 04:05:42;;;;;;;17.32;11.25;;;;;;;22.56;58.86;99846.84;1733915;81;21572;-40
2021/07/26 04:08:15;;;;;;;13.80;11.25;;;;;;;22.61;58.43;99847.71;1743241;81;21476;-40
2021/07/26 04:10:41;;;;;;;15.38;11.45;;;;;;;22.67;58.94;99846.60;1742485;81;21846;-40
2021/07/26 04:13:07;;;;;;;15.03;11.70;;;;;;;22.73;59.23;99851.23;1743205;82;21226;-40
2021/07/26 04:15:33;;;;;;;16.00;11.95;;;;;;;22.78;59.13;99843.81;1743183;82;21538;-40
2021/07/26 04:18:00;;;;;;;14.10;12.30;;;;;;;22.86;59.16;99849.94;1743085;82;21311;-40
2021/07/26 04:20:27;;;;;;;47.65;30.17;;;;;;;22.88;59.18;99848.32;1743348;82;21260;-40
2021/07/26 04:22:53;;;;;;;19.82;15.28;;;;;;;22.90;59.28;99851.41;1743548;82;21059;-40
2021/07/26 04:25:20;;;;;;;16.17;12.63;;;;;;;22.93;59.17;99853.94;1732624;82;20986;-40
2021/07/26 04:27:47;;;;;;;20.05;13.78;;;;;;;22.93;59.31;99863.02;1743300;82;20981;-40
2021/07/26 04:30:15;;;;;;;13.15;11.30;;;;;;;22.95;58.92;99868.88;1743189;82;21022;-40
2021/07/26 04:32:46;;;;;;;14.30;11.50;;;;;;;22.94;58.96;99868.72;1743376;82;21045;-40
2021/07/26 04:35:15;;;;;;;13.00;11.65;;;;;;;22.93;58.22;99857.48;1743045;82;21176;-40
2021/07/26 04:37:42;;;;;;;12.90;11.53;;;;;;;22.92;58.78;99857.30;1743497;82;21029;-40
2021/07/26 04:40:10;;;;;;;15.98;10.75;;;;;;;22.96;58.81;99857.99;1743125;82;21021;-40
2021/07/26 04:42:40;;;;;;;17.27;11.70;;;;;;;23.04;59.01;99852.31;1743405;82;21033;-40
2021/07/26 04:45:08;;;;;;;13.72;11.25;;;;;;;23.16;59.08;99857.91;1743391;81;21034;-40
2021/07/26 04:47:35;;;;;;;12.85;11.08;;;;;;;23.24;58.38;99856.52;1743488;82;21047;-40
2021/07/26 04:50:04;;;;;;;12.88;10.90;;;;;;;23.31;58.34;99847.28;1743251;81;20985;-40
2021/07/26 04:52:31;;;;;;;13.80;10.82;;;;;;;23.37;57.39;99849.09;1743688;82;20915;-40
2021/07/26 04:54:59;;;;;;;12.05;10.82;;;;;;;23.39;57.64;99849.42;1743181;81;22142;-40
2021/07/26 04:57:26;;;;;;;12.95;11.08;;;;;;;23.46;57.76;99853.25;1743215;82;21065;-40
2021/07/26 04:59:52;;;;;;;14.55;10.58;;;;;;;23.52;57.94;99850.92;1754838;81;21126;-40
2021/07/26 05:02:19;;;;;;;14.10;11.00;;;;;;;23.61;57.23;99846.92;1756271;81;21011;-40
2021/07/26 05:04:46;;;;;;;11.60;9.85;;;;;;;23.68;57.27;99850.87;1756584;81;20996;-40
2021/07/26 05:07:13;;;;;;;12.85;10.05;;;;;;;23.76;56.92;99846.72;1720457;83;21037;-40
2021/07/26 05:09:44;;;;;;;15.45;11.05;;;;;;;23.83;57.32;99854.81;1702516;84;21097;-40
2021/07/26 05:12:13;;;;;;;14.50;11.00;;;;;;;23.91;57.70;99853.25;1700952;84;21160;-40
2021/07/26 05:14:41;;;;;;;14.00;10.98;;;;;;;24.01;57.76;99853.56;1702480;84;20978;-40
2021/07/26 05:17:07;;;;;;;12.28;10.98;;;;;;;24.07;58.41;99851.78;1702351;84;21667;-40
2021/07/26 05:19:34;;;;;;;11.45;10.23;;;;;;;24.13;58.05;99844.50;1702703;84;21023;-40
2021/07/26 05:22:03;;;;;;;14.63;10.38;;;;;;;24.21;57.47;99847.25;1702486;84;21105;-40
2021/07/26 05:24:30;;;;;;;11.50;9.15;;;;;;;24.31;56.82;99856.47;1702372;84;21094;-40
2021/07/26 05:27:01;;;;;;;11.20;9.13;;;;;;;24.39;56.11;99854.46;1702419;84;20970;-40
2021/07/26 05:29:28;;;;;;;12.07;9.55;;;;;;;24.46;55.78;99857.00;1702800;84;21041;-40
2021/07/26 05:31:55;;;;;;;14.95;9.20;;;;;;;24.54;55.59;99852.04;1702318;84;22149;-40
2021/07/26 05:34:22;;;;;;;14.25;9.60;;;;;;;24.63;55.35;99849.37;1702456;84;21030;-40
2021/07/26 05:36:48;;;;;;;12.88;9.45;;;;;;;24.68;55.18;99855.77;1702404;84;21125;-40
2021/07/26 05:39:16;;;;;;;11.10;8.38;;;;;;;24.75;54.45;99854.75;1702166;84;21560;-40
2021/07/26 05:41:44;;;;;;;10.80;8.78;;;;;;;24.80;53.99;99853.59;1702564;84;21025;-41
2021/07/26 05:44:12;;;;;;;10.08;8.48;;;;;;;24.87;53.63;99851.24;1702366;84;20954;-40
2021/07/26 05:46:39;;;;;;;12.55;8.93;;;;;;;24.96;53.55;99854.12;1702470;84;21019;-41
2021/07/26 05:49:05;;;;;;;12.58;8.73;;;;;;;25.06;53.51;99851.61;1702582;84;21115;-41
2021/07/26 05:51:32;;;;;;;12.33;8.68;;;;;;;25.16;53.30;99849.11;1702536;84;21006;-41
2021/07/26 05:53:59;;;;;;;10.10;8.75;;;;;;;25.26;52.75;99854.91;1702402;84;21022;-40
2021/07/26 05:56:25;;;;;;;11.57;9.05;;;;;;;25.35;52.59;99860.55;1702379;84;21034;-41
2021/07/26 05:58:54;;;;;;;11.35;8.30;;;;;;;25.43;52.52;99863.25;1701407;84;21002;-41
2021/07/26 06:03:51;;;;;;;9.80;8.10;;;;;;;25.62;52.28;99862.05;1699255;84;20939;-40
2021/07/26 06:06:18;;;;;;;9.18;8.28;;;;;;;25.73;52.05;99862.47;1698992;84;21037;-41
2021/07/26 06:08:46;;;;;;;10.32;8.13;;;;;;;25.84;51.78;99868.43;1707008;83;21066;-40
2021/07/26 06:11:13;;;;;;;11.85;8.03;;;;;;;25.92;50.97;99868.33;1707239;84;21002;-41
2021/07/26 06:13:41;;;;;;;10.93;8.53;;;;;;;25.98;50.41;99870.70;1707086;83;20942;-40
2021/07/26 06:16:08;;;;;;;10.63;8.18;;;;;;;26.02;48.67;99869.17;1707275;84;21037;-41
2021/07/26 06:18:35;;;;;;;12.23;7.70;;;;;;;26.03;49.49;99872.90;1706902;83;21062;-41
2021/07/26 06:21:07;;;;;;;12.28;8.38;;;;;;;26.06;49.44;99867.81;1707199;83;21045;-41
2021/07/26 06:23:34;;;;;;;10.85;8.10;;;;;;;26.10;49.42;99874.62;1706909;84;21109;-40
2021/07/26 06:26:05;;;;;;;9.48;8.20;;;;;;;26.15;49.50;99872.66;1707100;84;21106;-40
2021/07/26 06:28:32;;;;;;;10.00;8.28;;;;;;;26.22;49.82;99878.77;1707017;83;20915;-41
2021/07/26 06:31:03;;;;;;;11.03;8.75;;;;;;;26.33;49.41;99880.55;1707185;84;21547;-41
2021/07/26 06:33:30;;;;;;;11.63;9.28;;;;;;;26.33;49.41;99880.55;1705471;84;21031;-41
2021/07/26 06:35:57;;;;;;;9.60;8.60;;;;;;;26.42;51.11;99883.22;1700070;84;21055;-41
2021/07/26 06:38:24;;;;;;;10.60;8.30;;;;;;;26.53;49.94;99883.60;1700102;84;21858;-41
2021/07/26 06:40:51;;;;;;;9.45;8.45;;;;;;;26.64;50.72;99886.12;1701451;83;21065;-41
2021/07/26 06:43:17;;;;;;;10.65;8.73;;;;;;;26.76;50.99;99884.48;1706687;84;20973;-41
2021/07/26 06:45:44;;;;;;;9.68;8.30;;;;;;;26.88;49.09;99884.23;1709559;83;21010;-41
2021/07/26 06:48:11;;;;;;;12.20;8.50;;;;;;;26.96;48.77;99889.09;1705448;83;21106;-41
2021/07/26 06:50:39;;;;;;;12.25;9.20;;;;;;;27.03;48.93;99886.62;1706616;84;21277;-41
2021/07/26 06:53:07;;;;;;;11.18;8.43;;;;;;;27.10;48.87;99884.34;1707166;84;21070;-41
2021/07/26 06:55:38;;;;;;;10.03;8.53;;;;;;;27.19;48.82;99887.77;1707183;84;20966;-41
2021/07/26 06:58:05;;;;;;;10.13;8.53;;;;;;;27.27;48.40;99888.23;1703774;84;21699;-40
2021/07/26 07:00:32;;;;;;;11.50;8.78;;;;;;;27.34;47.83;99900.48;1700174;83;21581;-41
2021/07/26 07:02:59;;;;;;;10.35;8.30;;;;;;;27.38;47.67;99901.11;1672289;84;21292;-41
2021/07/26 07:05:26;;;;;;;9.03;8.05;;;;;;;27.35;47.14;99881.93;1664259;86;21033;-41
2021/07/26 07:07:54;;;;;;;12.25;8.45;;;;;;;27.44;47.24;99897.27;1700632;82;20944;-41
2021/07/26 07:10:21;;;;;;;11.25;8.50;;;;;;;27.43;47.53;99905.45;1684410;82;21091;-41
2021/07/26 07:12:51;;;;;;;12.65;8.65;;;;;;;27.45;47.00;99905.00;1695155;83;21570;-41
2021/07/26 07:15:21;;;;;;;11.88;9.20;;;;;;;27.49;47.27;99905.04;1714770;82;20944;-41
2021/07/26 07:17:48;;;;;;;16.90;9.03;;;;;;;27.53;47.99;99902.87;1707855;83;21402;-41
2021/07/26 07:20:15;;;;;;;9.55;8.45;;;;;;;27.62;46.92;99892.36;1710571;82;21047;-41
2021/07/26 07:22:42;;;;;;;11.08;8.55;;;;;;;27.69;47.47;99892.06;1712296;82;21538;-41
2021/07/26 07:25:11;;;;;;;12.25;9.05;;;;;;;27.77;47.67;99896.09;1694687;83;21518;-41
2021/07/26 07:27:37;;;;;;;9.90;8.65;;;;;;;27.86;47.17;99889.13;1690957;82;21149;-41
2021/07/26 07:30:06;;;;;;;10.90;8.35;;;;;;;27.93;46.95;99888.80;1708793;82;21888;-41
2021/07/26 07:32:36;;;;;;;9.93;8.58;;;;;;;28.06;46.33;99888.66;1711825;82;21831;-41
2021/07/26 07:35:01;;;;;;;10.55;8.50;;;;;;;28.22;46.73;99893.16;1732828;82;21026;-40
2021/07/26 07:37:28;;;;;;;11.28;7.80;;;;;;;28.34;46.00;99894.98;1733093;82;21489;-41
2021/07/26 07:39:55;;;;;;;11.65;8.28;;;;;;;28.47;46.00;99890.77;1733105;82;21124;-41
2021/07/26 07:42:21;;;;;;;16.10;8.30;;;;;;;28.65;44.69;99892.75;1733068;82;20923;-41
2021/07/26 07:44:49;;;;;;;11.68;8.05;;;;;;;28.81;45.08;99901.39;1686484;82;21060;-41
2021/07/26 07:47:16;;;;;;;10.08;8.30;;;;;;;28.95;45.87;99895.13;1682138;85;21052;-41
2021/07/26 07:49:42;;;;;;;8.60;7.62;;;;;;;29.09;45.74;99898.66;1681829;85;21514;-41
2021/07/26 07:52:11;;;;;;;7.42;6.47;;;;;;;29.16;42.91;99900.31;1682049;85;21159;-41
2021/07/26 07:54:39;;;;;;;9.95;7.60;;;;;;;29.18;41.35;99900.63;1682003;85;21044;-41
2021/07/26 07:57:06;;;;;;;8.25;7.15;;;;;;;29.16;40.64;99905.89;1682132;85;21048;-41
2021/07/26 07:59:33;;;;;;;8.45;6.35;;;;;;;29.13;41.28;99904.06;1696653;82;21499;-41
2021/07/26 08:02:07;;;;;;;8.08;6.45;;;;;;;29.20;41.64;99895.32;1726035;83;21072;-41
2021/07/26 08:04:35;;;;;;;9.43;6.75;;;;;;;29.29;41.60;99899.45;1729801;81;21958;-41
2021/07/26 08:07:03;;;;;;;9.43;6.87;;;;;;;29.41;41.05;99899.12;1714529;83;21563;-41
2021/07/26 08:09:30;;;;;;;10.28;6.58;;;;;;;29.52;40.60;99904.95;1673517;85;21136;-41
2021/07/26 08:11:56;;;;;;;11.12;6.42;;;;;;;29.59;41.03;99895.58;1676337;82;21101;-41
2021/07/26 08:14:24;;;;;;;9.55;6.95;;;;;;;29.66;40.68;99895.84;1696322;84;21535;-41
2021/07/26 08:16:51;;;;;;;9.80;6.78;;;;;;;29.68;40.59;99899.70;1701626;83;21204;-41
2021/07/26 08:19:18;;;;;;;9.85;7.30;;;;;;;29.64;40.39;99900.50;1691818;83;21047;-41
2021/07/26 08:21:45;;;;;;;9.50;6.55;;;;;;;29.58;39.57;99903.80;1691435;84;21546;-41
2021/07/26 08:24:11;;;;;;;9.00;7.03;;;;;;;29.55;39.76;99902.59;1691519;84;21055;-41
2021/07/26 08:26:38;;;;;;;7.72;6.95;;;;;;;29.55;39.15;99899.17;1691652;84;21055;-42
2021/07/26 08:29:05;;;;;;;7.80;6.78;;;;;;;29.56;39.70;99904.92;1691616;84;21816;-41
2021/07/26 08:31:33;;;;;;;7.80;6.15;;;;;;;29.57;39.06;99902.90;1710685;83;20971;-41
2021/07/26 08:33:59;;;;;;;6.97;6.03;;;;;;;29.57;36.83;99900.88;1720383;83;21102;-41
2021/07/26 08:36:28;;;;;;;7.87;5.72;;;;;;;29.52;35.40;99898.74;1720406;83;20948;-41
2021/07/26 08:38:54;;;;;;;6.87;6.15;;;;;;;29.45;35.87;99900.48;1693649;83;21102;-41
2021/07/26 08:41:21;;;;;;;7.12;5.95;;;;;;;29.44;36.13;99896.76;1720513;83;21153;-41
2021/07/26 08:43:49;;;;;;;7.25;6.37;;;;;;;29.49;36.86;99898.28;1720256;83;20972;-41
2021/07/26 08:46:19;;;;;;;7.15;6.22;;;;;;;29.55;37.91;99892.81;1720427;83;21586;-42
2021/07/26 08:48:47;;;;;;;7.22;6.50;;;;;;;29.69;37.91;99894.26;1720498;83;21023;-41
2021/07/26 08:51:21;;;;;;;8.78;6.15;;;;;;;29.83;37.76;99894.15;1720525;83;21570;-41
2021/07/26 08:53:50;;;;;;;7.25;6.25;;;;;;;29.97;37.66;99894.06;1720511;83;21138;-41
2021/07/26 08:56:18;;;;;;;8.50;6.47;;;;;;;30.09;38.10;99894.44;1720316;83;21031;-41
2021/07/26 08:58:44;;;;;;;10.63;6.30;;;;;;;30.17;37.24;99894.97;1720378;83;21023;-41
2021/07/26 09:01:14;;;;;;;10.08;6.58;;;;;;;30.23;36.45;99885.28;1720482;83;21013;-41
2021/07/26 09:03:41;;;;;;;8.73;6.78;;;;;;;30.31;36.42;99889.86;1720511;83;21087;-41
2021/07/26 09:06:10;;;;;;;;;;;;;;;30.36;36.89;99890.58;1723045;83;21071;-41
2021/07/26 09:08:38;;;;;;;9.98;6.78;;;;;;;30.33;34.61;99886.73;1720706;83;20169;-41
2021/07/26 09:11:08;;;;;;;12.07;7.15;;;;;;;30.23;35.22;99882.48;1694177;83;20996;-41
2021/07/26 09:13:39;;;;;;;9.85;6.72;;;;;;;30.32;35.35;99881.62;1720638;83;20943;-41
2021/07/26 09:16:17;;;;;;;10.68;7.20;;;;;;;30.38;36.59;99881.09;1720488;83;21075;-41
2021/07/26 09:18:45;;;;;;;10.43;6.80;;;;;;;30.54;36.07;99877.84;1720249;83;21125;-41
2021/07/26 09:21:12;;;;;;;10.45;6.70;;;;;;;30.72;36.83;99874.83;1709546;83;20980;-41
2021/07/26 09:24:04;;;;;;;7.77;6.97;;;;;;;30.93;36.57;99870.84;1720467;83;21811;-41
2021/07/26 09:26:31;;;;;;;10.95;6.90;;;;;;;31.10;36.34;99880.91;1670166;84;21523;-41
2021/07/26 09:28:58;;;;;;;10.50;6.90;;;;;;;31.26;35.46;99881.78;1689866;84;21376;-41
2021/07/26 09:31:25;;;;;;;8.83;7.08;;;;;;;31.25;34.07;99886.45;1672384;84;21156;-41
2021/07/26 09:33:51;;;;;;;10.13;6.83;;;;;;;31.09;34.73;99883.55;1691494;84;21020;-41
2021/07/26 09:36:20;;;;;;;9.15;6.90;;;;;;;30.94;34.42;99880.77;1662350;86;21543;-41
2021/07/26 09:38:56;;;;;;;9.80;7.03;;;;;;;30.92;34.43;99876.92;1662327;86;21104;-41
2021/07/26 09:41:46;;;;;;;10.53;6.87;;;;;;;30.97;34.11;99872.03;1662332;86;21043;-41
2021/07/26 09:44:13;;;;;;;7.47;6.67;;;;;;;31.04;34.70;99875.22;1662226;86;21216;-41
2021/07/26 09:46:41;;;;;;;10.65;7.05;;;;;;;31.10;35.65;99883.70;1662170;86;21550;-41
2021/07/26 09:49:16;;;;;;;11.97;6.92;;;;;;;31.18;34.46;99880.63;1662230;86;21051;-42
2021/07/26 09:52:04;;;;;;;7.08;6.00;;;;;;;31.29;33.31;99882.19;1662373;86;21024;-42
2021/07/26 09:54:44;;;;;;;10.78;6.80;;;;;;;31.43;33.01;99877.16;1662577;86;21095;-42
2021/07/26 09:57:21;;;;;;;12.37;7.35;;;;;;;31.52;33.65;99881.09;1662137;86;21129;-41
2021/07/26 09:59:48;;;;;;;8.20;6.40;;;;;;;31.64;34.14;99875.78;1659622;86;21088;-42
2021/07/26 10:02:19;;;;;;;7.33;6.50;;;;;;;31.85;34.18;99877.32;1705404;84;21571;-41
2021/07/26 10:04:47;;;;;;;9.20;6.62;;;;;;;32.07;34.51;99873.97;1705688;84;20998;-42
2021/07/26 10:07:18;;;;;;;9.45;7.37;;;;;;;32.32;33.15;99871.83;1705525;83;20998;-41
2021/07/26 10:09:46;;;;;;;8.57;6.60;;;;;;;32.55;31.95;99865.13;1706539;82;21114;-41
2021/07/26 10:12:18;;;;;;;7.50;6.70;;;;;;;32.77;31.60;99866.73;1721194;82;21808;-42
2021/07/26 10:14:49;;;;;;;8.88;7.12;;;;;;;32.95;30.86;99862.78;1734782;82;21014;-41
2021/07/26 10:17:17;;;;;;;9.70;7.17;;;;;;;33.00;30.96;99863.45;1734807;82;21076;-41
2021/07/26 10:19:46;;;;;;;7.70;5.95;;;;;;;32.94;31.14;99870.30;1734787;82;21042;-41
2021/07/26 10:22:16;;;;;;;10.03;6.65;;;;;;;32.89;32.44;99871.80;1734604;82;21122;-41
2021/07/26 10:24:55;;;;;;;7.03;6.33;;;;;;;32.97;31.94;99863.03;1734939;82;20998;-41
2021/07/26 10:27:29;;;;;;;8.48;6.90;;;;;;;33.13;31.19;99855.98;1735076;81;21009;-41
2021/07/26 10:29:57;;;;;;;9.38;6.47;;;;;;;33.24;31.19;99860.92;1734824;82;21054;-41
2021/07/26 10:32:33;;;;;;;8.40;6.28;;;;;;;33.35;30.77;99862.40;1705664;84;21101;-41
2021/07/26 10:35:03;;;;;;;9.78;6.95;;;;;;;33.42;30.33;99856.28;1705628;84;21945;-41
2021/07/26 10:37:46;;;;;;;7.58;6.60;;;;;;;33.45;30.63;99853.22;1705402;84;21037;-41
2021/07/26 10:40:31;;;;;;;8.30;6.25;;;;;;;33.54;31.50;99853.03;1705389;84;21042;-42
2021/07/26 10:43:03;;;;;;;10.00;6.70;;;;;;;33.66;30.28;99855.23;1705196;84;21074;-41
2021/07/26 10:45:38;;;;;;;8.25;6.45;;;;;;;33.79;29.26;99858.36;1705647;84;21072;-41
2021/07/26 10:48:31;;;;;;;9.10;6.50;;;;;;;33.87;29.45;99853.80;1705467;84;21021;-41
2021/07/26 10:51:02;;;;;;;7.55;6.62;;;;;;;33.95;29.02;99847.02;1705135;83;21001;-41
2021/07/26 10:53:41;;;;;;;13.22;7.47;;;;;;;34.01;29.02;99846.40;1705601;84;21025;-42
2021/07/26 10:56:13;;;;;;;9.28;6.70;;;;;;;34.18;29.37;99845.06;1705594;83;21499;-42
2021/07/26 10:58:53;;;;;;;9.58;6.62;;;;;;;34.30;28.20;99845.18;1705336;84;21065;-42
2021/07/26 11:01:26;;;;;;;9.68;6.40;;;;;;;34.44;29.02;99840.70;1712844;83;21132;-42
2021/07/26 11:03:57;;;;;;;7.90;6.17;;;;;;;34.65;28.44;99848.25;1718836;83;21024;-42
2021/07/26 11:06:43;;;;;;;10.45;6.20;;;;;;;34.63;28.03;99845.17;1719208;83;21025;-42
2021/07/26 11:09:26;;;;;;;8.43;6.37;;;;;;;34.71;28.13;99843.39;1718820;83;20922;-42
2021/07/26 11:11:54;;;;;;;7.90;6.78;;;;;;;34.99;28.28;99841.19;1712932;83;21045;-41
2021/07/26 11:14:20;;;;;;;8.25;5.90;;;;;;;35.35;28.20;99842.88;1718892;83;21128;-42
2021/07/26 11:16:56;;;;;;;9.65;5.95;;;;;;;35.63;26.98;99846.33;1718901;83;21032;-42
2021/07/26 11:19:55;;;;;;;10.68;6.35;;;;;;;35.84;26.64;99840.36;1719076;83;20965;-42
2021/07/26 11:22:36;;;;;;;8.83;5.95;;;;;;;36.12;26.35;99838.11;1718982;83;21012;-42
2021/07/26 11:25:08;;;;;;;7.00;6.30;;;;;;;36.45;26.58;99832.25;1716127;83;21041;-42
2021/07/26 11:27:40;;;;;;;7.03;6.33;;;;;;;36.70;26.17;99828.08;1719068;83;21089;-42
2021/07/26 11:30:10;;;;;;;11.90;6.03;;;;;;;36.87;26.26;99825.84;1718916;82;21531;-42
2021/07/26 11:32:38;;;;;;;9.20;5.62;;;;;;;37.13;25.01;99824.69;1719264;83;21092;-42
2021/07/26 11:35:07;;;;;;;6.60;5.90;;;;;;;37.33;24.66;99821.98;1719203;83;21045;-42
2021/07/26 11:37:38;;;;;;;6.83;5.83;;;;;;;37.26;24.13;99814.11;1719182;83;21017;-42
2021/07/26 11:40:10;;;;;;;6.60;5.85;;;;;;;37.08;23.92;99819.86;1718990;83;21112;-42